Time;durP1;ratioP1;P1;durP2;ratioP2;P2;SDS_P1;SDS_P2;PMS_P1;PMS_P2;Temp;Humidity;BMP_temperature;BMP_pressure;BME280_temperature;BME280_humidity;BME280_pressure;Samples;Min_cycle;Max_cycle;Signal;HPM_P1;HPM_P2
2022/04/19 00:00:28;;;;;;;4.93;1.73;;;;;;;9.40;94.48;101663.75;10115750;28;20423;-63
2022/04/19 00:05:25;;;;;;;3.85;1.90;;;;;;;9.39;97.44;101662.94;10117340;28;20057;-63
2022/04/19 00:10:22;;;;;;;3.47;1.30;;;;;;;9.29;95.18;101667.69;10116376;28;20086;-63
2022/04/19 00:15:23;;;;;;;4.75;2.35;;;;;;;9.26;97.48;101669.09;10121111;28;20074;-64
2022/04/19 00:20:19;;;;;;;3.90;1.80;;;;;;;9.16;98.05;101658.25;10116888;28;20086;-63
2022/04/19 00:25:17;;;;;;;5.57;1.90;;;;;;;9.06;99.76;101654.50;10128223;28;20121;-64
2022/04/19 00:30:14;;;;;;;4.93;2.25;;;;;;;9.01;100.00;101657.25;10141448;28;20050;-64
2022/04/19 00:35:11;;;;;;;6.82;2.25;;;;;;;8.97;100.00;101656.19;10142272;28;20692;-65
2022/04/19 00:40:09;;;;;;;8.73;2.10;;;;;;;8.88;100.00;101657.91;10142650;28;20501;-65
2022/04/19 00:45:06;;;;;;;9.63;2.60;;;;;;;8.78;100.00;101657.97;10141637;28;20046;-63
2022/04/19 00:50:04;;;;;;;4.55;2.15;;;;;;;8.71;100.00;101652.84;10110724;28;20157;-65
2022/04/19 00:55:02;;;;;;;5.60;2.38;;;;;;;8.64;100.00;101644.97;10125995;28;20046;-65
2022/04/19 00:59:59;;;;;;;5.38;2.30;;;;;;;8.56;100.00;101650.19;10138431;28;20046;-64
2022/04/19 01:04:56;;;;;;;5.53;2.40;;;;;;;8.56;100.00;101655.66;10120897;28;20104;-63
2022/04/19 01:09:53;;;;;;;6.13;2.40;;;;;;;8.45;100.00;101649.44;10149683;28;20099;-64
2022/04/19 01:14:50;;;;;;;8.05;2.85;;;;;;;8.37;100.00;101647.25;10149527;28;20079;-63
2022/04/19 01:19:47;;;;;;;4.10;2.35;;;;;;;8.30;100.00;101647.56;10142767;28;20121;-63
2022/04/19 01:24:44;;;;;;;6.03;2.53;;;;;;;8.22;100.00;101654.41;10125854;28;20138;-63
2022/04/19 01:29:40;;;;;;;5.22;2.35;;;;;;;8.13;100.00;101647.13;10123606;28;20078;-63
2022/04/19 01:34:39;;;;;;;7.03;3.15;;;;;;;8.03;100.00;101647.97;10132578;28;20583;-65
2022/04/19 01:44:50;;;;;;;5.13;2.65;;;;;;;7.93;100.00;101643.34;10125415;28;20138;-65
2022/04/19 01:49:47;;;;;;;5.57;2.72;;;;;;;7.92;100.00;101646.38;10138058;28;20082;-65
2022/04/19 01:54:43;;;;;;;9.02;2.85;;;;;;;7.85;100.00;101641.22;10124752;28;20511;-63
2022/04/19 01:59:40;;;;;;;5.43;2.47;;;;;;;7.74;100.00;101640.41;10115629;28;20085;-64
2022/04/19 02:04:36;;;;;;;5.10;2.58;;;;;;;7.72;100.00;101642.59;10116401;28;20129;-63
2022/04/19 02:09:32;;;;;;;5.82;2.72;;;;;;;7.62;100.00;101648.06;10115053;28;20062;-64
2022/04/19 02:14:29;;;;;;;5.20;2.80;;;;;;;7.51;100.00;101641.00;10124037;28;20113;-64
2022/04/19 02:19:25;;;;;;;7.80;3.13;;;;;;;7.49;100.00;101638.56;10149761;28;20038;-64
2022/04/19 02:24:22;;;;;;;6.75;3.38;;;;;;;7.43;100.00;101655.19;10137255;28;20120;-64
2022/04/19 02:29:19;;;;;;;7.95;2.90;;;;;;;7.35;100.00;101645.66;10148321;28;20050;-64
2022/04/19 02:34:18;;;;;;;7.18;3.60;;;;;;;7.30;100.00;101641.03;10137221;28;20101;-64
2022/04/19 02:39:14;;;;;;;8.90;3.83;;;;;;;7.28;100.00;101648.63;10122213;28;20050;-64
2022/04/19 02:44:11;;;;;;;8.35;3.47;;;;;;;7.24;100.00;101647.56;10149866;28;20106;-64
2022/04/19 02:49:07;;;;;;;7.45;3.88;;;;;;;7.21;100.00;101653.53;10137931;28;20412;-63
2022/04/19 02:54:03;;;;;;;7.30;4.00;;;;;;;7.13;100.00;101651.38;10128052;28;20497;-63
2022/04/19 02:59:00;;;;;;;6.85;4.30;;;;;;;7.05;100.00;101650.00;10158943;28;20153;-63
2022/04/19 03:03:57;;;;;;;7.97;4.10;;;;;;;7.00;100.00;101641.03;10122628;28;20094;-63
2022/04/19 03:08:54;;;;;;;7.82;4.32;;;;;;;6.93;100.00;101639.38;10121058;28;20586;-65
2022/04/19 03:13:50;;;;;;;7.60;4.38;;;;;;;6.88;100.00;101650.25;10120719;28;20285;-64
2022/04/19 03:18:47;;;;;;;9.48;4.00;;;;;;;6.88;100.00;101644.00;10130916;28;20055;-63
2022/04/19 03:28:59;;;;;;;9.10;4.43;;;;;;;6.72;100.00;101640.44;10122237;28;20081;-63
2022/04/19 03:33:56;;;;;;;8.73;4.47;;;;;;;6.67;100.00;101640.44;10120820;28;20053;-64
2022/04/19 03:38:55;;;;;;;10.05;4.05;;;;;;;6.59;100.00;101640.97;10128376;28;20058;-63
2022/04/19 03:43:52;;;;;;;11.40;5.00;;;;;;;6.57;100.00;101643.13;10153752;28;20128;-63
2022/04/19 03:48:48;;;;;;;7.78;4.10;;;;;;;6.68;100.00;101644.78;10147858;28;20042;-64
2022/04/19 03:53:46;;;;;;;9.02;4.35;;;;;;;6.68;100.00;101650.22;10133385;28;20105;-64
2022/04/19 03:58:42;;;;;;;7.40;4.50;;;;;;;6.68;100.00;101652.94;10128978;28;20073;-64
2022/04/19 04:03:39;;;;;;;7.03;3.92;;;;;;;6.66;100.00;101655.09;10128050;28;20078;-64
2022/04/19 04:08:35;;;;;;;9.13;4.53;;;;;;;6.64;100.00;101643.72;10121956;28;20046;-64
2022/04/19 04:13:32;;;;;;;8.35;4.38;;;;;;;6.63;100.00;101648.31;10127211;28;20464;-64
2022/04/19 04:18:29;;;;;;;7.63;4.00;;;;;;;6.62;100.00;101646.69;10120514;28;20060;-65
2022/04/19 04:23:26;;;;;;;7.85;4.22;;;;;;;6.41;100.00;101656.69;10120768;28;20042;-66
2022/04/19 04:28:23;;;;;;;6.55;3.90;;;;;;;6.42;100.00;101650.16;10109005;28;20057;-66
2022/04/19 04:33:21;;;;;;;10.95;4.40;;;;;;;6.39;100.00;101650.69;10107801;28;20074;-65
2022/04/19 04:38:18;;;;;;;6.93;3.95;;;;;;;6.47;100.00;101655.59;10112341;28;20153;-65
2022/04/19 04:43:14;;;;;;;7.43;4.15;;;;;;;6.50;100.00;101655.09;10115590;28;20098;-65
2022/04/19 04:53:26;;;;;;;9.50;4.43;;;;;;;6.51;100.00;101656.69;10114625;28;20674;-66
2022/04/19 04:58:23;;;;;;;8.85;4.03;;;;;;;6.58;100.00;101661.88;10117609;28;20138;-66
2022/04/19 05:03:19;;;;;;;9.07;4.43;;;;;;;6.57;100.00;101662.16;10112556;28;20093;-66
2022/04/19 05:08:18;;;;;;;7.35;4.82;;;;;;;6.61;100.00;101660.53;10095526;28;20134;-65
2022/04/19 05:13:14;;;;;;;7.78;4.15;;;;;;;6.78;100.00;101655.69;10122887;28;20050;-66
2022/04/19 05:18:11;;;;;;;9.07;4.30;;;;;;;6.88;100.00;101654.88;10129151;28;20113;-66
2022/04/19 05:23:08;;;;;;;6.40;4.00;;;;;;;7.02;100.00;101657.88;10124387;28;20043;-66
2022/04/19 05:28:05;;;;;;;8.20;4.28;;;;;;;7.09;100.00;101655.72;10121902;28;20109;-66
2022/04/19 05:33:02;;;;;;;8.73;4.47;;;;;;;7.21;100.00;101664.41;10120946;28;20133;-66
2022/04/19 05:37:59;;;;;;;8.27;3.95;;;;;;;7.27;100.00;101674.22;10131340;28;20157;-66
2022/04/19 05:42:56;;;;;;;7.97;3.83;;;;;;;7.34;100.00;101660.34;10133518;28;20101;-65
2022/04/19 05:47:52;;;;;;;6.78;3.75;;;;;;;7.34;100.00;101650.28;10117825;28;20468;-66
2022/04/19 05:52:48;;;;;;;7.30;4.57;;;;;;;7.29;100.00;101650.28;10116409;28;20066;-66
2022/04/19 05:57:45;;;;;;;8.57;3.83;;;;;;;7.46;100.00;101654.63;10116653;28;20050;-66
2022/04/19 06:07:56;;;;;;;9.90;3.92;;;;;;;7.63;100.00;101666.00;10143440;28;20538;-65
2022/04/19 06:12:53;;;;;;;6.25;4.03;;;;;;;7.61;100.00;101668.19;10148640;28;20117;-66
2022/04/19 06:17:50;;;;;;;9.68;3.50;;;;;;;7.69;100.00;101664.94;10143083;28;20147;-65
2022/04/19 06:22:46;;;;;;;8.23;3.72;;;;;;;7.68;100.00;101674.19;10142635;28;20475;-65
2022/04/19 06:27:43;;;;;;;8.60;3.95;;;;;;;7.67;100.00;101675.28;10123303;28;20058;-65
2022/04/19 06:32:41;;;;;;;7.63;3.70;;;;;;;7.75;100.00;101669.28;10114329;28;20050;-66
2022/04/19 06:37:37;;;;;;;9.88;4.63;;;;;;;7.86;100.00;101675.50;10133898;28;20058;-65
2022/04/19 06:42:35;;;;;;;8.13;4.07;;;;;;;7.82;100.00;101679.06;10136357;28;20046;-69
2022/04/19 06:47:34;;;;;;;8.27;3.78;;;;;;;7.92;100.00;101674.41;10140407;28;20132;-66
2022/04/19 06:52:31;;;;;;;8.27;4.65;;;;;;;8.00;100.00;101678.47;10128001;28;20058;-66
2022/04/19 06:57:27;;;;;;;7.38;4.28;;;;;;;8.05;100.00;101683.88;10138882;28;20077;-65
2022/04/19 07:02:24;;;;;;;6.43;3.63;;;;;;;8.11;100.00;101685.50;10134307;28;20505;-66
2022/04/19 07:07:20;;;;;;;7.30;3.92;;;;;;;8.38;100.00;101687.06;10121849;28;20500;-66
2022/04/19 07:12:19;;;;;;;7.68;3.20;;;;;;;8.59;100.00;101690.53;10111918;28;20085;-66
2022/04/19 07:17:15;;;;;;;5.68;3.25;;;;;;;8.67;100.00;101689.13;10136704;28;20042;-67
2022/04/19 07:27:27;;;;;;;7.90;3.17;;;;;;;9.04;99.88;101692.16;10114787;28;20059;-67
2022/04/19 07:32:23;;;;;;;5.63;3.30;;;;;;;9.08;98.29;101691.59;10113195;28;20086;-67
2022/04/19 07:37:20;;;;;;;5.75;2.83;;;;;;;9.33;96.14;101691.41;10136458;28;20070;-67
2022/04/19 07:42:16;;;;;;;7.97;3.78;;;;;;;9.36;95.54;101688.09;10154908;28;20124;-67
2022/04/19 07:47:14;;;;;;;8.80;3.92;;;;;;;9.63;90.17;101694.94;10123599;28;20133;-68
2022/04/19 07:52:11;;;;;;;9.18;3.70;;;;;;;9.74;86.91;101690.22;10125370;28;20050;-66
2022/04/19 07:57:07;;;;;;;7.90;3.75;;;;;;;9.92;85.03;101686.75;10124785;28;20758;-67
2022/04/19 08:02:04;;;;;;;5.72;2.80;;;;;;;10.13;89.95;101681.06;10110919;28;20078;-65
2022/04/19 08:07:01;;;;;;;4.72;1.65;;;;;;;10.34;89.39;101684.41;10120750;28;20051;-66
2022/04/19 08:11:58;;;;;;;3.78;1.52;;;;;;;10.51;88.39;101671.03;10110972;28;20050;-66
2022/04/19 08:16:54;;;;;;;4.63;2.22;;;;;;;10.73;86.65;101670.47;10132023;28;20129;-66
2022/04/19 08:21:51;;;;;;;4.15;1.67;;;;;;;10.84;83.30;101673.88;10150256;28;20078;-65
2022/04/19 08:26:48;;;;;;;6.57;2.08;;;;;;;10.99;83.20;101670.91;10139108;28;20420;-66
2022/04/19 08:31:44;;;;;;;4.95;1.83;;;;;;;11.16;84.56;101668.44;10150220;28;20046;-65
2022/04/19 08:36:42;;;;;;;5.75;2.10;;;;;;;11.38;84.44;101661.50;10114059;28;20058;-66
2022/04/19 08:41:42;;;;;;;3.60;1.60;;;;;;;11.49;82.82;101662.97;10110309;28;20097;-65
2022/04/19 08:46:41;;;;;;;4.78;2.00;;;;;;;11.73;82.83;101662.78;10129590;28;20167;-66
2022/04/19 08:51:40;;;;;;;4.15;1.80;;;;;;;11.85;81.88;101656.81;10139101;28;20133;-66
2022/04/19 09:01:54;;;;;;;6.32;2.47;;;;;;;12.23;81.95;101661.31;10111019;28;20046;-66
2022/04/19 09:06:56;;;;;;;7.50;3.05;;;;;;;12.30;81.49;101662.53;10135665;28;20092;-66
2022/04/19 09:12:07;;;;;;;7.78;3.08;;;;;;;12.39;85.33;101663.44;10146578;28;20050;-66
2022/04/19 09:17:10;;;;;;;6.22;2.78;;;;;;;12.64;83.08;101655.75;10123950;28;20093;-66
2022/04/19 09:22:08;;;;;;;8.23;2.70;;;;;;;12.99;76.20;101658.81;10132392;28;20054;-66
2022/04/19 09:27:04;;;;;;;5.95;2.88;;;;;;;13.25;75.75;101657.06;10136201;28;20086;-67
2022/04/19 09:32:11;;;;;;;6.45;2.67;;;;;;;13.44;73.44;101664.31;10154391;28;20133;-66
2022/04/19 09:37:10;;;;;;;7.57;3.35;;;;;;;13.72;72.48;101659.47;10127883;28;20058;-66
2022/04/19 09:42:12;;;;;;;8.48;3.60;;;;;;;13.94;71.64;101660.50;10136594;28;20452;-68
2022/04/19 09:47:12;;;;;;;8.70;3.17;;;;;;;14.26;63.88;101653.81;10142685;28;20050;-66
2022/04/19 09:52:12;;;;;;;6.30;2.28;;;;;;;14.92;63.54;101657.34;10147730;28;20046;-66
2022/04/19 09:57:12;;;;;;;8.05;3.13;;;;;;;15.63;56.62;101647.78;10119476;28;20046;-66
2022/04/19 10:12:41;;;;;;;5.75;2.55;;;;;;;19.61;48.51;101646.69;10124152;28;20055;-66
2022/04/19 10:17:39;;;;;;;5.38;2.20;;;;;;;20.72;43.58;101647.38;10109936;28;20133;-67
2022/04/19 10:22:35;;;;;;;6.30;2.67;;;;;;;21.47;39.82;101648.09;10116513;28;20149;-67
2022/04/19 10:27:33;;;;;;;5.38;2.08;;;;;;;21.77;38.65;101639.03;10117545;28;20800;-65
2022/04/19 10:32:33;;;;;;;5.45;1.63;;;;;;;21.60;37.94;101652.28;10126571;28;20039;-66
2022/04/19 10:37:30;;;;;;;5.15;1.92;;;;;;;21.62;35.58;101649.94;10127297;28;20057;-67
2022/04/19 10:42:29;;;;;;;6.32;2.03;;;;;;;22.43;37.59;101646.03;10129492;28;20081;-65
2022/04/19 10:47:28;;;;;;;5.05;2.10;;;;;;;22.14;35.16;101646.78;10137838;28;20053;-66
2022/04/19 10:52:36;;;;;;;5.53;1.85;;;;;;;22.94;36.38;101649.50;10143958;28;20125;-66
2022/04/19 10:58:16;;;;;;;5.20;2.15;;;;;;;23.25;35.00;101649.06;10159963;28;20050;-66
2022/04/19 11:03:15;;;;;;;5.97;1.40;;;;;;;23.20;34.47;101643.81;10134711;28;20535;-66
2022/04/19 11:08:24;;;;;;;3.78;1.48;;;;;;;23.49;35.28;101641.34;10143323;28;20062;-68
2022/04/19 11:13:22;;;;;;;3.35;1.33;;;;;;;23.59;34.75;101651.78;10138194;28;20456;-66
2022/04/19 11:18:22;;;;;;;3.42;1.02;;;;;;;23.68;34.27;101643.91;10145561;28;20081;-66
2022/04/19 11:23:21;;;;;;;3.88;1.17;;;;;;;23.87;32.25;101639.28;10144173;28;20592;-67
2022/04/19 11:28:19;;;;;;;7.22;1.80;;;;;;;23.29;34.70;101638.75;10140185;28;20069;-67
2022/04/19 11:33:22;;;;;;;3.20;1.20;;;;;;;23.59;33.38;101640.63;10141289;28;20081;-68
2022/04/19 11:38:18;;;;;;;5.30;1.30;;;;;;;23.49;30.63;101641.34;10120854;28;20556;-67
2022/04/19 11:48:31;;;;;;;5.97;1.60;;;;;;;23.43;34.37;101637.28;10120869;28;20138;-68
2022/04/19 11:53:27;;;;;;;4.32;1.17;;;;;;;22.59;35.77;101634.72;10146395;28;20049;-68
2022/04/19 11:58:24;;;;;;;3.15;0.88;;;;;;;22.78;37.56;101630.97;10136434;28;20108;-68
2022/04/19 12:03:32;;;;;;;2.05;0.90;;;;;;;23.69;36.64;101625.94;10137347;28;20129;-68
2022/04/19 12:08:33;;;;;;;2.63;0.60;;;;;;;23.29;36.02;101627.56;10134687;28;20072;-68
2022/04/19 12:13:30;;;;;;;2.50;0.77;;;;;;;23.56;35.48;101630.25;10136898;28;20098;-67
2022/04/19 12:18:52;;;;;;;1.00;0.43;;;;;;;23.18;35.94;101621.09;10132672;28;20078;-67
2022/04/19 12:23:51;;;;;;;3.53;0.70;;;;;;;24.13;35.45;101613.94;10131501;28;20055;-67
2022/04/19 12:28:47;;;;;;;2.03;0.50;;;;;;;25.03;33.35;101616.34;10145945;28;20112;-67
2022/04/19 12:33:54;;;;;;;1.90;0.68;;;;;;;24.87;34.08;101606.31;10123864;28;20062;-66
2022/04/19 12:38:59;;;;;;;2.22;0.60;;;;;;;23.58;29.33;101615.88;10133938;28;20050;-65
2022/04/19 12:44:01;;;;;;;1.70;0.65;;;;;;;23.09;34.72;101601.88;10120775;28;20061;-66
2022/04/19 12:48:57;;;;;;;1.13;0.57;;;;;;;23.27;35.77;101596.47;10115665;28;20472;-67
2022/04/19 12:54:02;;;;;;;0.98;0.40;;;;;;;23.06;37.32;101602.63;10125133;28;20361;-66
2022/04/19 12:58:59;;;;;;;1.23;0.40;;;;;;;22.95;37.59;101595.31;10114325;28;20043;-66
2022/04/19 13:03:56;;;;;;;1.60;0.32;;;;;;;22.95;37.94;101587.75;10125830;28;20161;-67
2022/04/19 13:14:08;;;;;;;1.63;0.60;;;;;;;22.54;35.08;101587.69;10126071;28;20105;-67
2022/04/19 13:19:06;;;;;;;1.58;0.47;;;;;;;22.61;40.12;101584.19;10120336;28;20539;-67
2022/04/19 13:24:02;;;;;;;1.13;0.40;;;;;;;22.08;36.46;101576.69;10121540;28;20078;-67
2022/04/19 13:28:59;;;;;;;1.88;0.50;;;;;;;22.17;33.58;101574.44;10118373;28;20042;-67
2022/04/19 13:33:55;;;;;;;4.30;0.80;;;;;;;21.59;28.40;101569.97;10126215;28;20512;-66
2022/04/19 13:38:51;;;;;;;5.25;1.48;;;;;;;21.60;35.65;101568.00;10117673;28;20441;-66
2022/04/19 13:43:48;;;;;;;1.88;0.70;;;;;;;22.10;40.18;101573.53;10121910;28;20146;-67
2022/04/19 13:48:44;;;;;;;2.28;1.00;;;;;;;22.34;39.91;101564.72;10148657;28;20065;-66
2022/04/19 13:53:41;;;;;;;3.35;0.90;;;;;;;22.62;39.03;101583.00;10146849;28;20078;-67
2022/04/19 13:58:37;;;;;;;2.15;0.95;;;;;;;22.73;33.35;101572.78;10148682;28;20489;-67
2022/04/19 14:03:34;;;;;;;3.45;1.63;;;;;;;22.81;39.55;101580.03;10144881;28;20104;-67
2022/04/19 14:08:32;;;;;;;3.28;1.48;;;;;;;22.62;28.79;101577.41;10124588;28;20070;-62
2022/04/19 14:13:28;;;;;;;3.78;1.20;;;;;;;23.00;36.98;101581.03;10124468;28;20046;-63
2022/04/19 14:18:26;;;;;;;3.25;1.33;;;;;;;23.22;39.46;101580.09;10135857;28;20042;-65
2022/04/19 14:23:23;;;;;;;4.88;1.48;;;;;;;23.25;41.07;101576.50;10132402;28;20074;-64
2022/04/19 14:28:21;;;;;;;4.90;2.22;;;;;;;22.65;39.46;101571.91;10122310;28;20560;-65
2022/04/19 14:33:19;;;;;;;4.80;1.85;;;;;;;21.98;45.21;101578.13;10122828;28;20137;-63
2022/04/19 14:38:16;;;;;;;3.15;1.50;;;;;;;21.19;44.84;101582.38;10120421;28;20507;-63
2022/04/19 14:43:13;;;;;;;5.10;2.08;;;;;;;20.74;38.27;101583.91;10134615;28;20050;-63
2022/04/19 14:48:09;;;;;;;3.38;1.60;;;;;;;20.69;54.81;101578.66;10113686;28;20517;-62
2022/04/19 14:53:08;;;;;;;4.55;1.52;;;;;;;20.39;41.92;101576.41;10119548;28;20058;-62
2022/04/19 14:58:05;;;;;;;3.58;1.88;;;;;;;20.66;51.68;101587.72;10127249;28;20436;-63
2022/04/19 15:03:03;;;;;;;4.55;1.95;;;;;;;20.90;56.55;101585.81;10123030;28;20599;-63
2022/04/19 15:08:00;;;;;;;3.97;1.95;;;;;;;20.95;59.91;101580.75;10120684;28;20129;-63
2022/04/19 15:12:57;;;;;;;5.28;2.08;;;;;;;21.17;57.00;101584.72;10124940;28;20496;-63
2022/04/19 15:17:55;;;;;;;4.20;2.15;;;;;;;21.18;52.38;101586.31;10123098;28;20449;-63
2022/04/19 15:22:53;;;;;;;5.18;2.33;;;;;;;20.72;48.03;101591.81;10118678;28;20092;-62
2022/04/19 15:27:49;;;;;;;4.80;2.13;;;;;;;20.93;47.76;101590.63;10115650;28;20560;-63
2022/04/19 15:32:46;;;;;;;4.70;2.20;;;;;;;21.38;57.44;101589.06;10113629;28;20074;-63
2022/04/19 15:37:42;;;;;;;4.80;2.17;;;;;;;21.62;62.65;101588.72;10124677;28;20051;-63
2022/04/19 15:42:39;;;;;;;4.20;2.08;;;;;;;21.63;53.08;101595.09;10118525;28;20055;-63
2022/04/19 15:47:36;;;;;;;5.55;2.45;;;;;;;21.42;45.37;101595.50;10127555;28;20058;-63
2022/04/19 15:52:32;;;;;;;8.68;2.30;;;;;;;21.43;58.68;101602.69;10143251;28;20050;-62
2022/04/19 15:57:29;;;;;;;4.53;2.28;;;;;;;21.26;63.00;101597.56;10141226;28;20489;-63
2022/04/19 16:02:26;;;;;;;4.50;1.70;;;;;;;21.19;60.82;101607.41;10134532;28;20070;-62
2022/04/19 16:07:22;;;;;;;6.18;2.13;;;;;;;21.56;57.27;101612.47;10118849;28;20047;-62
2022/04/19 16:12:19;;;;;;;6.82;2.22;;;;;;;21.54;41.08;101598.13;10128061;28;20078;-62
2022/04/19 16:27:46;;;;;;;4.10;2.03;;;;;;;21.89;49.51;101599.88;10129096;28;20088;-64
2022/04/19 16:32:43;;;;;;;5.95;2.20;;;;;;;22.03;58.38;101602.88;10127844;28;20425;-64
2022/04/19 16:37:41;;;;;;;4.53;2.03;;;;;;;22.44;58.56;101605.88;10124680;28;20093;-63
2022/04/19 16:42:38;;;;;;;5.47;2.22;;;;;;;22.69;54.48;101605.38;10113151;28;20046;-62
2022/04/19 16:47:35;;;;;;;5.03;2.10;;;;;;;23.01;47.70;101604.97;10115551;28;20070;-64
2022/04/19 16:52:31;;;;;;;5.47;2.40;;;;;;;23.14;50.76;101609.09;10125892;28;20133;-63
2022/04/19 16:57:29;;;;;;;6.45;2.58;;;;;;;23.58;42.05;101616.69;10117133;28;20035;-63
2022/04/19 17:02:26;;;;;;;5.72;2.17;;;;;;;23.52;46.69;101627.41;10124629;28;20046;-62
2022/04/19 17:07:22;;;;;;;4.80;1.75;;;;;;;23.02;38.16;101623.31;10117820;28;20050;-64
2022/04/19 17:12:19;;;;;;;3.67;1.70;;;;;;;22.44;43.70;101638.47;10116218;28;20129;-63
2022/04/19 17:17:16;;;;;;;4.80;2.42;;;;;;;21.22;30.65;101640.03;10115123;28;20058;-63
2022/04/19 17:22:12;;;;;;;3.50;1.70;;;;;;;21.04;30.29;101641.66;10115499;28;20113;-64
2022/04/19 17:27:15;;;;;;;5.60;2.30;;;;;;;20.08;32.64;101645.94;10118150;28;20108;-65
2022/04/19 17:32:12;;;;;;;6.95;1.85;;;;;;;19.59;32.73;101643.47;10114111;28;20068;-65
2022/04/19 17:37:09;;;;;;;4.03;1.80;;;;;;;18.92;34.36;101652.41;10099934;28;20670;-65
2022/04/19 17:42:05;;;;;;;5.32;1.65;;;;;;;18.28;35.88;101651.22;10108062;28;20144;-64
2022/04/19 17:47:02;;;;;;;4.97;1.70;;;;;;;17.95;37.00;101659.69;10118297;28;20125;-65
2022/04/19 17:57:14;;;;;;;4.38;1.60;;;;;;;17.38;39.89;101669.56;10136178;28;20130;-65
2022/04/19 18:02:13;;;;;;;6.18;1.80;;;;;;;17.02;39.83;101673.81;10122046;28;20159;-64
2022/04/19 18:07:11;;;;;;;7.10;2.25;;;;;;;16.75;39.52;101675.13;10118793;28;20133;-65
2022/04/19 18:12:08;;;;;;;6.47;2.70;;;;;;;16.52;39.34;101683.72;10123921;28;20074;-65
2022/04/19 18:17:05;;;;;;;4.50;1.90;;;;;;;16.08;41.07;101685.94;10125546;28;20830;-66
2022/04/19 18:27:17;;;;;;;3.72;1.52;;;;;;;15.66;42.82;101707.78;10124417;28;20046;-65
2022/04/19 18:32:14;;;;;;;5.32;1.67;;;;;;;15.46;43.57;101708.50;10129428;28;20415;-65
2022/04/19 18:37:11;;;;;;;5.10;1.42;;;;;;;15.19;43.63;101715.16;10136802;28;20460;-65
2022/04/19 18:42:07;;;;;;;5.25;1.80;;;;;;;15.08;44.90;101720.16;10154141;28;20062;-65
2022/04/19 18:47:04;;;;;;;3.28;1.25;;;;;;;14.75;46.28;101723.38;10131141;28;20073;-66
2022/04/19 18:52:01;;;;;;;4.07;1.33;;;;;;;14.73;46.91;101731.16;10113112;28;20050;-64
2022/04/19 18:56:58;;;;;;;4.28;1.52;;;;;;;14.41;47.34;101735.94;10115244;28;20041;-66
2022/04/19 19:01:55;;;;;;;3.22;1.15;;;;;;;14.53;46.74;101746.31;10125564;28;20043;-65
2022/04/19 19:06:52;;;;;;;5.13;1.30;;;;;;;14.25;48.66;101745.72;10128930;28;20055;-66
2022/04/19 19:11:48;;;;;;;4.25;1.63;;;;;;;14.09;50.74;101757.16;10146025;28;20054;-66
2022/04/19 19:16:45;;;;;;;4.78;1.70;;;;;;;13.53;54.29;101766.84;10134611;28;20082;-66
2022/04/19 19:21:41;;;;;;;5.03;1.45;;;;;;;13.73;53.16;101764.72;10150965;28;20471;-65
2022/04/19 19:26:39;;;;;;;3.78;1.48;;;;;;;13.69;54.59;101775.50;10141813;28;20096;-65
2022/04/19 19:31:36;;;;;;;4.35;1.35;;;;;;;13.56;57.45;101782.69;10146176;28;20115;-66
2022/04/19 19:36:33;;;;;;;4.05;1.42;;;;;;;13.50;57.18;101772.94;10133881;28;20049;-65
2022/04/19 19:41:30;;;;;;;5.82;1.70;;;;;;;13.21;61.23;101785.13;10135382;28;20462;-65
2022/04/19 19:46:27;;;;;;;3.78;1.40;;;;;;;13.28;62.62;101786.69;10118884;28;20164;-67
2022/04/19 19:51:24;;;;;;;7.68;1.88;;;;;;;13.17;62.33;101781.38;10124119;28;20672;-66
2022/04/19 19:56:21;;;;;;;4.90;1.70;;;;;;;13.16;65.44;101785.25;10128802;28;20054;-66
2022/04/19 20:01:17;;;;;;;5.55;1.40;;;;;;;13.02;65.70;101781.75;10133663;28;20106;-67
2022/04/19 20:06:14;;;;;;;3.78;1.40;;;;;;;12.89;67.47;101785.31;10147615;28;20122;-67
2022/04/19 20:11:11;;;;;;;5.95;1.92;;;;;;;12.82;72.77;101783.78;10129273;28;20157;-67
2022/04/19 20:16:11;;;;;;;5.30;2.00;;;;;;;12.74;72.79;101790.00;10120096;28;20142;-65
2022/04/19 20:21:08;;;;;;;5.00;1.60;;;;;;;12.60;76.34;101789.19;10124475;28;20051;-64
2022/04/19 20:26:05;;;;;;;5.97;2.10;;;;;;;12.50;76.63;101789.41;10125526;28;20046;-64
2022/04/19 20:31:02;;;;;;;4.10;1.60;;;;;;;12.38;78.94;101798.94;10145674;28;20057;-64
2022/04/19 20:35:58;;;;;;;6.25;2.20;;;;;;;12.32;82.50;101797.44;10136089;28;20049;-63
2022/04/19 20:40:55;;;;;;;4.07;1.70;;;;;;;12.08;84.31;101799.50;10138017;28;20093;-66
2022/04/19 20:45:51;;;;;;;5.25;1.58;;;;;;;12.05;84.23;101800.94;10135132;28;20051;-66
2022/04/19 20:50:50;;;;;;;7.70;1.73;;;;;;;11.95;87.03;101810.16;10145532;28;20105;-66
2022/04/19 20:55:49;;;;;;;6.50;1.85;;;;;;;11.88;88.86;101812.47;10128337;28;21506;-65
2022/04/19 21:00:45;;;;;;;6.07;2.00;;;;;;;11.73;89.63;101815.41;10145009;28;20557;-65
2022/04/19 21:05:42;;;;;;;5.75;1.90;;;;;;;11.64;91.75;101814.47;10130596;28;20054;-67
2022/04/19 21:10:38;;;;;;;5.85;2.28;;;;;;;11.53;93.33;101820.13;10143057;28;20065;-65
2022/04/19 21:15:35;;;;;;;5.45;2.58;;;;;;;11.41;94.08;101830.69;10122472;28;20121;-64
2022/04/19 21:20:32;;;;;;;6.78;2.45;;;;;;;11.28;95.18;101825.94;10143692;28;20128;-64
2022/04/19 21:25:28;;;;;;;6.25;2.22;;;;;;;11.23;97.70;101835.06;10149000;28;21884;-64
2022/04/19 21:30:45;;;;;;;7.22;2.50;;;;;;;11.09;97.17;101829.50;10150162;28;20061;-65
2022/04/19 21:35:41;;;;;;;5.07;2.17;;;;;;;10.98;99.48;101833.47;10139445;28;20125;-65
2022/04/19 21:40:38;;;;;;;4.93;1.98;;;;;;;10.93;100.00;101830.78;10152928;28;20532;-65
2022/04/19 21:45:34;;;;;;;7.57;2.40;;;;;;;10.94;100.00;101832.41;10136722;28;20129;-65
2022/04/19 21:50:31;;;;;;;6.45;2.85;;;;;;;10.88;100.00;101839.06;10154396;28;20046;-65
2022/04/19 21:55:27;;;;;;;8.25;3.33;;;;;;;10.72;100.00;101842.00;10140308;28;20077;-66
2022/04/19 22:00:46;;;;;;;11.32;2.60;;;;;;;10.57;100.00;101833.94;10153234;28;20420;-66
2022/04/19 22:05:43;;;;;;;7.18;2.92;;;;;;;10.56;100.00;101836.97;10141341;28;20046;-66
2022/04/19 22:10:39;;;;;;;5.65;2.42;;;;;;;10.42;100.00;101842.31;10148455;28;20078;-64
2022/04/19 22:15:36;;;;;;;6.55;2.70;;;;;;;10.41;100.00;101843.41;10161589;28;20070;-64
2022/04/19 22:20:32;;;;;;;6.68;2.35;;;;;;;10.27;100.00;101846.78;10148349;28;20071;-63
2022/04/19 22:25:28;;;;;;;4.80;2.30;;;;;;;10.21;100.00;101853.44;10145369;28;20552;-63
2022/04/19 22:30:25;;;;;;;5.75;2.25;;;;;;;10.14;100.00;101852.91;10143313;28;20117;-63
2022/04/19 22:35:22;;;;;;;6.68;2.45;;;;;;;9.98;100.00;101855.00;10145001;28;20050;-63
2022/04/19 22:40:18;;;;;;;8.80;2.85;;;;;;;9.92;100.00;101855.31;10141527;28;20668;-63
2022/04/19 22:45:15;;;;;;;7.28;2.97;;;;;;;9.96;100.00;101856.38;10135945;28;20074;-64
2022/04/19 22:50:11;;;;;;;7.28;3.03;;;;;;;9.86;100.00;101860.81;10133024;28;20054;-67
2022/04/19 22:55:08;;;;;;;9.32;3.10;;;;;;;9.77;100.00;101876.19;10138803;28;20149;-67
2022/04/19 23:00:06;;;;;;;4.80;2.40;;;;;;;9.79;100.00;101868.50;10152670;28;20130;-65
2022/04/19 23:05:03;;;;;;;15.27;5.35;;;;;;;9.65;100.00;101879.28;10134421;28;20460;-66
2022/04/19 23:09:59;;;;;;;7.38;4.10;;;;;;;9.59;100.00;101880.41;10136867;28;20463;-66
2022/04/19 23:14:56;;;;;;;7.05;3.60;;;;;;;9.57;100.00;101876.31;10129550;28;20571;-66
2022/04/19 23:19:52;;;;;;;6.47;3.28;;;;;;;9.51;100.00;101878.25;10147161;28;20078;-67
2022/04/19 23:24:49;;;;;;;6.63;3.42;;;;;;;9.39;100.00;101881.31;10146498;28;20046;-64
2022/04/19 23:29:45;;;;;;;11.05;4.15;;;;;;;9.33;100.00;101881.63;10144169;28;20042;-66
2022/04/19 23:34:42;;;;;;;8.88;4.35;;;;;;;9.20;100.00;101885.78;10136713;28;20050;-64
2022/04/19 23:39:38;;;;;;;11.02;4.90;;;;;;;9.22;100.00;101887.16;10120922;28;20070;-65
2022/04/19 23:44:35;;;;;;;9.40;4.32;;;;;;;9.12;100.00;101881.75;10133529;28;20492;-65
2022/04/19 23:49:31;;;;;;;10.98;4.53;;;;;;;9.10;100.00;101885.81;10135828;28;20050;-64
2022/04/19 23:54:27;;;;;;;10.00;5.53;;;;;;;8.78;100.00;101887.03;10149552;28;20551;-64
2022/04/19 23:59:24;;;;;;;9.35;4.95;;;;;;;8.92;100.00;101888.09;10147198;28;20171;-65
